Time;durP1;ratioP1;P1;durP2;ratioP2;P2;SDS_P1;SDS_P2;PMS_P1;PMS_P2;Temp;Humidity;BMP_temperature;BMP_pressure;BME280_temperature;BME280_humidity;BME280_pressure;Samples;Min_cycle;Max_cycle;Signal;HPM_P1;HPM_P2
2022/04/20 00:00:04;;;;;;;15.35;7.13;;;8.80;99.90;;;;;;5063711;28;20059;-61
2022/04/20 00:02:37;;;;;;;14.98;6.22;;;8.80;99.90;;;;;;5049789;28;20156;-61
2022/04/20 00:05:05;;;;;;;13.15;7.53;;;8.70;99.90;;;;;;5055840;28;20040;-61
2022/04/20 00:07:33;;;;;;;15.88;8.98;;;8.70;99.90;;;;;;5069872;28;20498;-61
2022/04/20 00:10:01;;;;;;;13.60;7.80;;;8.70;99.90;;;;;;5069820;28;20052;-61
2022/04/20 00:12:29;;;;;;;17.83;8.70;;;8.70;99.90;;;;;;5069374;28;20060;-61
2022/04/20 00:14:56;;;;;;;18.08;7.57;;;8.60;99.90;;;;;;5066163;28;20492;-61
2022/04/20 00:17:24;;;;;;;18.35;8.57;;;8.60;99.90;;;;;;5051422;28;20048;-63
2022/04/20 00:19:52;;;;;;;16.48;7.97;;;8.60;99.90;;;;;;5069931;28;20044;-65
2022/04/20 00:22:19;;;;;;;20.40;8.93;;;8.50;99.90;;;;;;5069774;28;20056;-64
2022/04/20 00:24:47;;;;;;;18.77;8.60;;;8.50;99.90;;;;;;5069654;28;20523;-64
2022/04/20 00:27:15;;;;;;;15.65;9.05;;;8.50;99.90;;;;;;5053034;28;20041;-61
2022/04/20 00:29:42;;;;;;;20.25;8.82;;;8.40;99.90;;;;;;5065411;28;20045;-61
2022/04/20 00:32:10;;;;;;;22.17;8.23;;;8.40;99.90;;;;;;5049604;28;20057;-62
2022/04/20 00:34:37;;;;;;;13.10;7.60;;;8.40;99.90;;;;;;5054996;28;20040;-62
2022/04/20 00:37:05;;;;;;;16.20;8.27;;;8.30;99.90;;;;;;5049541;28;20072;-64
2022/04/20 00:39:33;;;;;;;15.90;8.88;;;8.30;99.90;;;;;;5064701;28;20056;-65
2022/04/20 00:42:01;;;;;;;17.33;7.93;;;8.20;99.90;;;;;;5064985;28;20047;-63
2022/04/20 00:44:29;;;;;;;16.77;8.52;;;8.20;99.90;;;;;;5064798;28;20053;-62
2022/04/20 00:46:57;;;;;;;14.60;7.85;;;8.20;99.90;;;;;;5048527;28;20052;-62
2022/04/20 00:49:26;;;;;;;17.25;8.77;;;8.20;99.90;;;;;;5063663;28;20412;-64
2022/04/20 00:51:57;;;;;;;19.55;9.30;;;8.10;99.90;;;;;;5065603;28;20055;-67
2022/04/20 00:54:27;;;;;;;17.08;8.65;;;8.10;99.90;;;;;;5068223;28;20040;-66
2022/04/20 00:56:56;;;;;;;18.80;8.82;;;8.10;99.90;;;;;;5068225;28;20037;-66
2022/04/20 00:59:29;;;;;;;17.90;8.88;;;8.10;99.90;;;;;;5059707;28;20404;-65
2022/04/20 01:01:58;;;;;;;17.85;8.88;;;8.10;99.90;;;;;;5043437;28;20045;-62
2022/04/20 01:04:27;;;;;;;16.33;8.88;;;8.00;99.90;;;;;;5028600;28;20428;-64
2022/04/20 01:06:59;;;;;;;15.88;9.10;;;8.10;99.90;;;;;;5046920;28;20503;-64
2022/04/20 01:09:50;;;;;;;16.35;8.95;;;8.10;99.90;;;;;;5067852;28;20080;-62
2022/04/20 01:12:44;;;;;;;14.00;8.38;;;8.00;99.90;;;;;;5065378;28;20056;-65
2022/04/20 01:15:21;;;;;;;15.00;8.02;;;8.00;99.90;;;;;;5064910;28;20075;-62
2022/04/20 01:18:15;;;;;;;14.73;7.80;;;8.00;99.90;;;;;;5051537;28;20044;-62
2022/04/20 01:20:55;;;;;;;14.32;7.60;;;8.00;99.90;;;;;;5049618;28;20040;-61
2022/04/20 01:23:33;;;;;;;17.02;7.30;;;8.00;99.90;;;;;;5048034;28;20049;-62
2022/04/20 01:26:20;;;;;;;14.38;7.43;;;8.00;99.90;;;;;;5049023;28;20489;-61
2022/04/20 01:29:07;;;;;;;16.83;8.77;;;8.00;99.90;;;;;;5058465;28;20491;-61
2022/04/20 01:31:38;;;;;;;15.32;7.88;;;8.00;99.90;;;;;;5055889;28;20052;-61
2022/04/20 01:34:24;;;;;;;14.10;6.85;;;8.00;99.90;;;;;;5050620;28;20041;-61
2022/04/20 01:36:55;;;;;;;12.07;6.40;;;8.00;99.90;;;;;;5068783;28;20047;-61
2022/04/20 01:39:22;;;;;;;13.80;6.93;;;8.00;99.90;;;;;;5062773;28;20098;-61
2022/04/20 01:41:50;;;;;;;12.45;6.07;;;8.00;99.90;;;;;;5073090;28;20049;-61
2022/04/20 01:44:17;;;;;;;13.05;5.75;;;8.00;99.90;;;;;;5072895;28;20051;-61
2022/04/20 01:46:56;;;;;;;14.23;5.35;;;8.00;99.90;;;;;;5066824;28;20037;-61
2022/04/20 01:49:52;;;;;;;8.82;5.43;;;8.00;99.90;;;;;;5072721;28;20116;-61
2022/04/20 01:52:38;;;;;;;11.52;4.78;;;8.00;99.90;;;;;;5073866;28;20044;-61
2022/04/20 01:55:25;;;;;;;12.40;4.90;;;8.00;99.90;;;;;;5073937;28;20495;-61
2022/04/20 01:58:14;;;;;;;8.93;4.50;;;8.00;99.90;;;;;;5069495;28;20044;-62
2022/04/20 02:03:54;;;;;;;7.68;3.75;;;8.10;99.90;;;;;;5058869;28;20051;-61
2022/04/20 02:06:21;;;;;;;13.25;4.82;;;8.00;99.90;;;;;;5072319;28;20051;-61
2022/04/20 02:08:54;;;;;;;10.20;4.45;;;8.00;99.90;;;;;;5072553;28;20048;-61
2022/04/20 02:11:31;;;;;;;11.98;3.95;;;8.00;99.90;;;;;;5072546;28;20041;-61
2022/04/20 02:14:12;;;;;;;6.22;3.15;;;8.00;99.90;;;;;;5066382;28;20404;-62
2022/04/20 02:16:43;;;;;;;11.48;3.45;;;8.00;99.90;;;;;;5052226;28;20045;-61
2022/04/20 02:19:31;;;;;;;12.45;3.40;;;8.00;99.90;;;;;;5056504;28;20052;-61
2022/04/20 02:22:05;;;;;;;7.45;3.05;;;8.00;99.90;;;;;;5072061;28;20044;-61
2022/04/20 02:24:33;;;;;;;7.90;2.87;;;7.90;99.90;;;;;;5071932;28;20044;-61
2022/04/20 02:27:01;;;;;;;8.30;3.47;;;7.90;99.90;;;;;;5072135;28;20293;-61
2022/04/20 02:29:29;;;;;;;9.10;3.10;;;7.90;99.90;;;;;;5053690;28;20485;-61
2022/04/20 02:31:57;;;;;;;6.93;3.70;;;7.80;99.90;;;;;;5051774;28;20048;-61
2022/04/20 02:34:25;;;;;;;7.10;2.95;;;7.80;99.90;;;;;;5053328;28;20140;-62
2022/04/20 02:36:53;;;;;;;10.13;4.43;;;7.70;99.90;;;;;;5061721;28;20055;-61
2022/04/20 02:39:22;;;;;;;12.93;6.18;;;7.60;99.90;;;;;;5073239;28;20052;-61
2022/04/20 02:41:49;;;;;;;9.88;5.20;;;7.60;99.90;;;;;;5073244;28;20048;-61
2022/04/20 02:44:17;;;;;;;12.70;5.68;;;7.50;99.90;;;;;;5073008;28;20056;-61
2022/04/20 02:46:45;;;;;;;12.80;6.68;;;7.40;99.90;;;;;;5071053;28;20045;-61
2022/04/20 02:49:13;;;;;;;14.73;6.70;;;7.30;99.90;;;;;;5069356;28;20051;-60
2022/04/20 02:51:40;;;;;;;10.63;6.70;;;7.30;99.90;;;;;;5069448;28;20056;-61
2022/04/20 02:54:08;;;;;;;14.68;6.95;;;7.20;99.90;;;;;;5071355;28;20036;-61
2022/04/20 02:56:38;;;;;;;13.13;7.20;;;7.20;99.90;;;;;;5071529;28;20044;-61
2022/04/20 02:59:06;;;;;;;15.00;7.55;;;7.10;99.90;;;;;;5056369;28;20045;-61
2022/04/20 03:01:36;;;;;;;11.73;7.25;;;7.00;99.90;;;;;;5051118;28;20064;-61
2022/04/20 03:04:09;;;;;;;13.77;7.25;;;6.90;99.90;;;;;;5051335;28;20400;-61
2022/04/20 03:06:38;;;;;;;15.48;7.50;;;6.90;99.90;;;;;;5051400;28;20041;-62
2022/04/20 03:09:12;;;;;;;14.90;7.30;;;6.80;99.90;;;;;;5034494;28;20064;-61
2022/04/20 03:11:42;;;;;;;17.83;8.43;;;6.70;99.90;;;;;;5053502;28;20582;-62
2022/04/20 03:14:12;;;;;;;12.20;6.97;;;6.70;99.90;;;;;;5051142;28;20373;-62
2022/04/20 03:16:39;;;;;;;18.70;8.63;;;6.60;99.90;;;;;;5034969;28;20056;-62
2022/04/20 03:19:11;;;;;;;19.83;8.43;;;6.60;99.90;;;;;;5051071;28;20049;-66
2022/04/20 03:21:39;;;;;;;16.92;8.10;;;6.50;99.90;;;;;;5051023;28;20041;-62
2022/04/20 03:24:06;;;;;;;21.80;8.80;;;6.50;99.90;;;;;;5050944;28;20056;-62
2022/04/20 03:26:53;;;;;;;21.63;9.00;;;6.40;99.90;;;;;;5052152;28;20048;-63
2022/04/20 03:29:26;;;;;;;15.18;8.48;;;6.40;99.90;;;;;;5034673;28;20047;-64
2022/04/20 03:31:54;;;;;;;15.70;8.60;;;6.30;99.90;;;;;;5051576;28;20072;-66
2022/04/20 03:34:22;;;;;;;15.02;7.32;;;6.30;99.90;;;;;;5050817;28;20056;-62
2022/04/20 03:36:49;;;;;;;12.45;6.70;;;6.20;99.90;;;;;;5050830;28;20041;-63
2022/04/20 03:39:17;;;;;;;16.63;6.82;;;6.20;99.90;;;;;;5051968;28;20048;-66
2022/04/20 03:41:45;;;;;;;15.63;6.20;;;6.10;99.90;;;;;;5051644;28;20056;-65
2022/04/20 03:44:12;;;;;;;11.43;5.63;;;6.10;99.90;;;;;;5033769;28;20049;-64
2022/04/20 03:46:40;;;;;;;11.07;5.68;;;6.10;99.90;;;;;;5051657;28;20044;-61
2022/04/20 03:49:08;;;;;;;9.52;4.97;;;6.00;99.90;;;;;;5050702;28;20059;-61
2022/04/20 03:51:36;;;;;;;13.77;5.30;;;6.00;99.90;;;;;;5050621;28;20063;-65
2022/04/20 03:54:04;;;;;;;8.98;5.18;;;6.00;99.90;;;;;;5052273;28;20049;-64
2022/04/20 03:59:21;;;;;;;10.77;4.95;;;5.90;99.90;;;;;;5051884;28;20052;-66
2022/04/20 04:01:51;;;;;;;8.85;5.05;;;5.90;99.90;;;;;;5051551;28;20053;-61
2022/04/20 04:04:20;;;;;;;10.35;4.60;;;5.80;99.90;;;;;;5050266;28;20049;-64
2022/04/20 04:06:50;;;;;;;7.82;3.70;;;5.80;99.90;;;;;;5068871;28;20496;-62
2022/04/20 04:09:20;;;;;;;;;;;5.70;99.90;;;;;;5070926;28;20078;-61
2022/04/20 04:11:50;;;;;;;9.35;3.92;;;5.70;99.90;;;;;;5068400;28;19943;-63
2022/04/20 04:14:20;;;;;;;8.45;3.47;;;5.70;99.90;;;;;;5070221;28;20051;-63
2022/04/20 04:16:49;;;;;;;9.93;3.30;;;5.70;99.90;;;;;;5070402;28;20040;-63
2022/04/20 04:19:17;;;;;;;7.00;3.10;;;5.60;99.90;;;;;;5067265;28;20044;-64
2022/04/20 04:21:48;;;;;;;6.70;3.28;;;5.60;99.90;;;;;;5049579;28;20045;-64
2022/04/20 04:24:34;;;;;;;7.63;3.55;;;5.60;99.90;;;;;;5060840;28;20067;-64
2022/04/20 04:27:07;;;;;;;7.43;4.10;;;5.60;99.90;;;;;;5050420;28;20056;-61
2022/04/20 04:29:38;;;;;;;6.53;4.25;;;5.60;99.90;;;;;;5049853;28;20048;-62
2022/04/20 04:32:07;;;;;;;7.57;4.32;;;5.60;99.90;;;;;;5050065;28;20045;-62
2022/04/20 04:34:37;;;;;;;8.60;5.07;;;5.50;99.90;;;;;;5051311;28;20056;-62
2022/04/20 04:37:10;;;;;;;13.02;5.68;;;5.50;99.90;;;;;;5050145;28;20656;-62
2022/04/20 04:39:38;;;;;;;13.05;6.50;;;5.50;99.90;;;;;;5050030;28;20049;-63
2022/04/20 04:42:08;;;;;;;13.82;7.20;;;5.40;99.90;;;;;;5050189;28;20041;-63
2022/04/20 04:44:36;;;;;;;17.45;7.97;;;5.40;99.90;;;;;;5049903;28;20045;-61
2022/04/20 04:50:04;;;;;;;;;;;5.30;99.90;;;;;;5063869;28;20045;-65
2022/04/20 04:52:32;;;;;;;12.70;7.28;;;5.30;99.90;;;;;;5046781;28;19931;-63
2022/04/20 04:55:07;;;;;;;12.10;6.80;;;5.30;99.90;;;;;;5046672;28;20052;-63
2022/04/20 04:57:36;;;;;;;10.68;6.50;;;5.30;99.90;;;;;;5051708;28;20048;-64
2022/04/20 05:00:05;;;;;;;17.70;6.63;;;5.20;99.90;;;;;;5066520;28;20395;-64
2022/04/20 05:02:46;;;;;;;13.27;6.05;;;5.20;99.90;;;;;;5057693;28;20045;-62
2022/04/20 05:05:13;;;;;;;10.32;6.00;;;5.20;99.90;;;;;;5044482;28;20045;-62
2022/04/20 05:07:42;;;;;;;13.80;6.40;;;5.20;99.90;;;;;;5051107;28;20941;-63
2022/04/20 05:10:14;;;;;;;9.32;5.82;;;5.20;99.90;;;;;;5065032;28;20063;-63
2022/04/20 05:12:41;;;;;;;10.98;6.00;;;5.10;99.90;;;;;;5055292;28;20033;-65
2022/04/20 05:15:09;;;;;;;13.27;5.70;;;5.10;99.90;;;;;;5072116;28;20040;-64
2022/04/20 05:17:37;;;;;;;13.93;6.40;;;5.10;99.90;;;;;;5068497;28;20700;-64
2022/04/20 05:20:06;;;;;;;16.60;5.78;;;5.10;99.90;;;;;;5068330;28;20052;-63
2022/04/20 05:22:36;;;;;;;15.27;5.38;;;5.10;99.90;;;;;;5051783;28;20041;-63
2022/04/20 05:25:04;;;;;;;;;;;5.10;99.90;;;;;;5052266;28;20052;-63
2022/04/20 05:27:32;;;;;;;14.93;5.40;;;5.10;99.90;;;;;;5052371;28;20363;-64
2022/04/20 05:30:09;;;;;;;12.75;4.85;;;5.10;99.90;;;;;;5068296;28;20037;-63
2022/04/20 05:32:38;;;;;;;14.77;5.43;;;5.00;99.90;;;;;;5065663;28;20059;-64
2022/04/20 05:35:12;;;;;;;17.50;5.88;;;5.10;99.90;;;;;;5048513;28;20595;-63
2022/04/20 05:43:21;;;;;;;12.07;4.53;;;5.00;99.90;;;;;;5064741;28;20044;-63
2022/04/20 05:45:51;;;;;;;8.55;5.03;;;5.00;99.90;;;;;;5048414;28;20040;-63
2022/04/20 05:48:43;;;;;;;18.63;5.55;;;5.00;99.90;;;;;;5056406;28;20048;-63
2022/04/20 05:51:14;;;;;;;14.75;4.68;;;5.00;99.90;;;;;;5067846;28;20040;-63
2022/04/20 05:53:44;;;;;;;17.00;5.20;;;5.00;99.90;;;;;;5051306;28;20104;-63
2022/04/20 05:56:13;;;;;;;11.63;5.53;;;5.00;99.90;;;;;;5034367;28;20053;-63
2022/04/20 05:58:50;;;;;;;10.23;5.90;;;5.10;99.90;;;;;;5065460;28;20315;-63
2022/04/20 06:01:22;;;;;;;17.02;5.20;;;5.10;99.90;;;;;;5070635;28;20040;-64
2022/04/20 06:03:57;;;;;;;9.18;4.65;;;5.10;99.90;;;;;;5044935;28;20558;-67
2022/04/20 06:06:37;;;;;;;8.98;4.78;;;5.20;99.90;;;;;;5050320;28;20052;-66
2022/04/20 06:09:25;;;;;;;12.43;5.07;;;5.20;99.90;;;;;;5050595;28;20504;-66
2022/04/20 06:11:59;;;;;;;15.93;5.80;;;5.20;99.90;;;;;;5052900;28;20041;-66
2022/04/20 06:14:46;;;;;;;14.38;6.10;;;5.30;99.90;;;;;;5048365;28;20053;-67
2022/04/20 06:17:37;;;;;;;14.85;6.15;;;5.30;99.90;;;;;;5064856;28;20052;-63
2022/04/20 06:20:07;;;;;;;16.42;5.85;;;5.40;99.90;;;;;;5053045;28;20041;-67
2022/04/20 06:22:58;;;;;;;13.80;5.60;;;5.50;99.90;;;;;;5061006;28;20047;-63
2022/04/20 06:25:46;;;;;;;16.95;6.75;;;5.50;99.90;;;;;;5070497;28;20055;-64
2022/04/20 06:28:32;;;;;;;19.48;7.93;;;5.60;99.90;;;;;;5046662;28;20047;-64
2022/04/20 06:31:26;;;;;;;18.80;6.40;;;5.60;99.90;;;;;;5068090;28;20059;-64
2022/04/20 06:34:12;;;;;;;16.77;7.00;;;5.70;99.90;;;;;;5054337;28;20056;-63
2022/04/20 06:36:51;;;;;;;12.57;6.25;;;5.80;99.90;;;;;;5054141;28;20040;-63
2022/04/20 06:39:38;;;;;;;15.23;6.43;;;5.90;99.90;;;;;;5071441;28;20041;-62
2022/04/20 06:42:23;;;;;;;15.07;6.20;;;6.00;99.90;;;;;;5049716;28;20052;-63
2022/04/20 06:45:20;;;;;;;13.98;6.93;;;6.00;99.90;;;;;;5052691;28;20048;-63
2022/04/20 06:47:59;;;;;;;12.20;7.03;;;6.20;99.90;;;;;;5064934;28;20055;-63
2022/04/20 06:50:43;;;;;;;14.95;7.25;;;6.20;99.90;;;;;;5049546;28;20056;-62
2022/04/20 06:59:05;;;;;;;25.42;8.60;;;6.60;99.90;;;;;;5065707;28;20040;-62
2022/04/20 07:01:51;;;;;;;16.45;7.20;;;6.80;99.90;;;;;;5061418;28;20036;-63
2022/04/20 07:04:30;;;;;;;17.65;8.90;;;6.90;99.90;;;;;;5053006;28;20503;-64
2022/04/20 07:07:27;;;;;;;14.73;7.55;;;7.10;99.90;;;;;;5051308;28;20389;-65
2022/04/20 07:10:31;;;;;;;14.45;7.43;;;7.30;99.90;;;;;;5039001;28;20060;-62
2022/04/20 07:13:03;;;;;;;19.50;8.35;;;7.50;99.90;;;;;;5057528;28;20051;-63
2022/04/20 07:15:31;;;;;;;18.40;8.05;;;7.60;99.90;;;;;;5064175;28;20499;-64
2022/04/20 07:17:58;;;;;;;16.10;7.72;;;7.80;99.90;;;;;;5047805;28;20056;-63
2022/04/20 07:20:45;;;;;;;18.13;7.22;;;8.00;99.90;;;;;;5049395;28;20048;-63
2022/04/20 07:23:24;;;;;;;13.40;7.88;;;8.10;99.90;;;;;;5060847;28;20040;-63
2022/04/20 07:25:56;;;;;;;13.90;6.45;;;8.30;99.90;;;;;;5048266;28;20044;-63
2022/04/20 07:28:35;;;;;;;18.70;7.97;;;8.40;99.90;;;;;;5046784;28;20403;-63
2022/04/20 07:31:24;;;;;;;17.03;7.13;;;8.50;99.90;;;;;;5055470;28;20056;-63
2022/04/20 07:34:12;;;;;;;24.17;8.80;;;8.60;99.90;;;;;;5064788;28;20040;-62
2022/04/20 07:37:04;;;;;;;22.70;7.50;;;8.80;99.90;;;;;;5054274;28;20495;-63
2022/04/20 07:39:47;;;;;;;17.63;7.53;;;8.90;99.90;;;;;;5050060;28;20036;-63
2022/04/20 07:42:36;;;;;;;17.95;7.13;;;9.00;99.90;;;;;;5057119;28;20052;-63
2022/04/20 07:45:26;;;;;;;15.98;6.85;;;9.20;99.90;;;;;;5068068;28;20053;-61
2022/04/20 07:48:09;;;;;;;17.67;7.78;;;9.30;99.90;;;;;;5049964;28;20047;-61
2022/04/20 07:50:55;;;;;;;14.32;7.50;;;9.40;99.90;;;;;;5051665;28;20029;-61
2022/04/20 07:53:41;;;;;;;15.75;6.72;;;9.60;99.90;;;;;;5068135;28;20044;-60
2022/04/20 07:56:32;;;;;;;12.30;6.65;;;9.80;99.90;;;;;;5048897;28;20056;-61
2022/04/20 07:59:15;;;;;;;14.52;6.07;;;9.90;99.90;;;;;;5064725;28;20059;-61
2022/04/20 08:02:03;;;;;;;13.68;7.20;;;10.10;99.90;;;;;;5053974;28;20516;-62
2022/04/20 08:05:04;;;;;;;18.80;7.88;;;10.20;99.90;;;;;;5064740;28;20048;-61
2022/04/20 08:07:33;;;;;;;15.18;6.60;;;10.30;99.90;;;;;;5061938;28;20268;-65
2022/04/20 08:10:11;;;;;;;15.30;6.55;;;10.40;99.90;;;;;;5069874;28;20043;-61
2022/04/20 08:12:44;;;;;;;14.35;6.32;;;10.60;99.90;;;;;;5050954;28;20045;-61
2022/04/20 08:15:25;;;;;;;15.07;6.20;;;10.70;99.90;;;;;;5048615;28;20049;-61
2022/04/20 08:17:55;;;;;;;14.75;6.32;;;10.80;99.90;;;;;;5054777;28;20047;-61
2022/04/20 08:20:41;;;;;;;13.98;6.68;;;10.90;99.90;;;;;;5057757;28;20048;-61
2022/04/20 08:23:09;;;;;;;13.82;6.38;;;11.10;99.90;;;;;;5052956;28;20033;-62
2022/04/20 08:25:37;;;;;;;15.32;6.75;;;11.20;99.90;;;;;;5049534;28;20056;-61
2022/04/20 08:28:05;;;;;;;12.75;6.35;;;11.30;99.90;;;;;;5056472;28;20613;-62
2022/04/20 08:30:33;;;;;;;13.23;5.88;;;11.40;99.90;;;;;;5052810;28;20401;-61
2022/04/20 08:33:02;;;;;;;11.80;6.03;;;11.50;99.90;;;;;;5052635;28;20056;-61
2022/04/20 08:35:29;;;;;;;13.45;6.00;;;11.60;99.90;;;;;;5047108;28;20128;-61
2022/04/20 08:37:57;;;;;;;14.15;6.13;;;11.70;99.90;;;;;;5054420;28;20064;-62
2022/04/20 08:40:26;;;;;;;11.32;5.95;;;11.70;99.90;;;;;;5064517;28;20045;-63
2022/04/20 08:42:54;;;;;;;12.02;6.20;;;11.80;99.90;;;;;;5069608;28;20195;-62
2022/04/20 08:45:22;;;;;;;12.13;6.40;;;11.90;99.90;;;;;;5056917;28;20489;-63
2022/04/20 08:47:50;;;;;;;14.52;5.88;;;12.00;99.90;;;;;;5055073;28;20511;-62
2022/04/20 08:50:18;;;;;;;12.32;4.75;;;12.10;99.90;;;;;;5067811;28;20041;-62
2022/04/20 08:52:49;;;;;;;11.50;6.07;;;12.20;99.90;;;;;;5053632;28;20049;-63
2022/04/20 08:55:18;;;;;;;12.65;5.75;;;12.30;99.90;;;;;;5053541;28;20048;-63
2022/04/20 08:57:48;;;;;;;11.05;5.85;;;12.40;99.90;;;;;;5054863;28;20056;-61
2022/04/20 09:00:21;;;;;;;11.90;6.20;;;12.50;99.90;;;;;;5037790;28;20058;-61
2022/04/20 09:03:00;;;;;;;12.70;5.60;;;12.50;99.90;;;;;;5055478;28;20045;-61
2022/04/20 09:05:34;;;;;;;9.48;5.40;;;12.60;99.90;;;;;;5053261;28;20404;-62
2022/04/20 09:08:14;;;;;;;10.95;6.25;;;12.70;99.90;;;;;;5060921;28;20053;-61
2022/04/20 09:10:44;;;;;;;10.93;5.82;;;12.70;99.90;;;;;;5035645;28;20053;-60
2022/04/20 09:13:13;;;;;;;12.70;6.22;;;12.80;99.90;;;;;;5066432;28;20056;-61
2022/04/20 09:15:41;;;;;;;11.05;5.68;;;12.80;99.90;;;;;;5066979;28;20404;-62
2022/04/20 09:18:10;;;;;;;12.80;5.65;;;12.90;99.90;;;;;;5061265;28;20045;-61
2022/04/20 09:20:40;;;;;;;12.75;6.15;;;13.00;99.90;;;;;;5055410;28;20060;-61
2022/04/20 09:23:14;;;;;;;9.55;4.95;;;13.10;99.90;;;;;;5067379;28;20063;-61
2022/04/20 09:25:50;;;;;;;9.45;4.95;;;13.10;99.90;;;;;;5067318;28;20048;-61
2022/04/20 09:28:18;;;;;;;11.98;4.85;;;13.20;99.90;;;;;;5060333;28;20052;-63
2022/04/20 09:30:50;;;;;;;9.90;4.93;;;13.30;99.90;;;;;;5063751;28;20041;-61
2022/04/20 09:33:18;;;;;;;11.73;5.00;;;13.40;99.90;;;;;;5052706;28;20053;-62
2022/04/20 09:35:48;;;;;;;12.20;4.80;;;13.50;99.90;;;;;;5050803;28;20056;-62
2022/04/20 09:38:21;;;;;;;10.23;5.22;;;13.60;99.90;;;;;;5042326;28;20488;-62
2022/04/20 09:41:09;;;;;;;10.98;5.32;;;13.70;99.90;;;;;;5048977;28;20045;-62
2022/04/20 09:43:38;;;;;;;11.30;5.20;;;13.80;99.90;;;;;;5054499;28;20044;-61
2022/04/20 09:49:08;;;;;;;10.57;5.63;;;13.90;98.60;;;;;;5050622;28;20568;-62
2022/04/20 09:51:41;;;;;;;8.73;5.00;;;13.90;98.20;;;;;;5055651;28;20416;-62
2022/04/20 09:54:28;;;;;;;11.50;5.38;;;14.00;98.30;;;;;;5055652;28;20041;-62
2022/04/20 09:57:10;;;;;;;10.25;5.55;;;14.10;98.20;;;;;;5050043;28;20687;-63
2022/04/20 10:00:01;;;;;;;12.95;5.05;;;14.10;98.40;;;;;;5055832;28;20040;-62
2022/04/20 10:02:48;;;;;;;11.38;5.28;;;14.20;98.00;;;;;;5055043;28;20048;-61
2022/04/20 10:05:17;;;;;;;10.77;5.50;;;14.30;96.70;;;;;;5053436;28;20084;-62
2022/04/20 10:07:58;;;;;;;11.25;5.70;;;14.40;97.10;;;;;;5055434;28;20045;-62
2022/04/20 10:10:30;;;;;;;16.60;6.90;;;14.50;97.30;;;;;;5061529;28;20048;-62
2022/04/20 10:12:59;;;;;;;10.68;5.57;;;14.50;95.80;;;;;;5051222;28;20048;-61
2022/04/20 10:18:20;;;;;;;12.40;5.60;;;14.60;95.00;;;;;;5072740;28;20476;-61
2022/04/20 10:20:50;;;;;;;10.85;5.60;;;14.70;95.10;;;;;;5060217;28;20045;-61
2022/04/20 10:23:21;;;;;;;13.60;5.40;;;14.80;94.50;;;;;;5060487;28;20048;-61
2022/04/20 10:25:51;;;;;;;11.63;5.78;;;14.90;93.80;;;;;;5057972;28;20052;-62
2022/04/20 10:28:31;;;;;;;11.30;6.03;;;15.00;92.60;;;;;;5054538;28;20064;-61
2022/04/20 10:31:22;;;;;;;13.40;6.47;;;15.10;92.70;;;;;;5049613;28;20384;-62
2022/04/20 10:34:00;;;;;;;19.75;6.65;;;15.20;92.90;;;;;;5050253;28;20052;-62
2022/04/20 10:36:39;;;;;;;10.38;5.38;;;15.30;92.40;;;;;;5060740;28;20052;-62
2022/04/20 10:39:22;;;;;;;12.25;5.18;;;15.50;91.00;;;;;;5052753;28;20063;-63
2022/04/20 10:42:11;;;;;;;13.70;5.95;;;15.60;90.80;;;;;;5052214;28;20416;-64
2022/04/20 10:44:57;;;;;;;10.40;5.88;;;15.60;90.40;;;;;;5048457;28;20048;-62
2022/04/20 10:47:29;;;;;;;12.48;5.53;;;15.60;90.70;;;;;;5048788;28;20044;-61
2022/04/20 10:50:16;;;;;;;11.13;5.25;;;15.70;90.80;;;;;;5053681;28;20055;-62
2022/04/20 10:53:06;;;;;;;10.40;4.80;;;15.80;88.40;;;;;;5051692;28;20045;-61
2022/04/20 10:55:51;;;;;;;10.60;5.05;;;15.90;88.00;;;;;;5037528;28;20060;-60
2022/04/20 10:58:21;;;;;;;12.52;4.95;;;16.00;86.30;;;;;;5050450;28;20443;-60
2022/04/20 11:01:09;;;;;;;10.18;4.88;;;16.00;86.90;;;;;;5053928;28;20045;-61
2022/04/20 11:03:58;;;;;;;12.32;5.43;;;16.10;86.20;;;;;;5052770;28;20794;-61
2022/04/20 11:06:27;;;;;;;11.38;5.15;;;16.20;84.60;;;;;;5052958;28;20056;-61
2022/04/20 11:09:00;;;;;;;8.50;4.25;;;16.30;84.60;;;;;;5048543;28;20423;-63
2022/04/20 11:21:09;;;;;;;10.02;4.60;;;16.60;80.50;;;;;;5068133;28;20396;-62
2022/04/20 11:23:53;;;;;;;12.43;5.38;;;16.70;80.40;;;;;;5047743;28;20040;-62
2022/04/20 11:26:28;;;;;;;13.57;6.00;;;16.80;79.30;;;;;;5049522;28;20041;-66
2022/04/20 11:29:08;;;;;;;11.50;5.13;;;16.80;80.10;;;;;;5049062;28;20060;-62
2022/04/20 11:31:42;;;;;;;11.02;5.22;;;16.90;81.50;;;;;;5049537;28;20045;-63
2022/04/20 11:34:11;;;;;;;10.25;6.07;;;17.00;79.60;;;;;;5051204;28;20503;-61
2022/04/20 11:36:43;;;;;;;11.82;6.18;;;17.10;80.10;;;;;;5061514;28;20070;-60
2022/04/20 11:39:12;;;;;;;11.90;5.35;;;17.10;78.20;;;;;;5033768;28;20052;-60
2022/04/20 11:41:51;;;;;;;10.50;5.30;;;17.10;79.00;;;;;;5058538;28;20139;-60
2022/04/20 11:44:22;;;;;;;12.25;5.72;;;17.10;79.90;;;;;;5050296;28;20400;-61
2022/04/20 11:46:58;;;;;;;11.07;5.35;;;17.10;78.80;;;;;;5050657;28;20040;-61
2022/04/20 11:49:41;;;;;;;11.80;6.40;;;17.00;79.50;;;;;;5063028;28;20059;-61
2022/04/20 11:52:14;;;;;;;17.05;6.57;;;17.10;79.00;;;;;;5059468;28;20032;-61
2022/04/20 11:54:47;;;;;;;10.52;5.97;;;17.20;78.40;;;;;;5055154;28;20056;-61
2022/04/20 11:57:25;;;;;;;15.38;6.40;;;17.30;78.10;;;;;;5051054;28;20037;-65
2022/04/20 11:59:52;;;;;;;16.15;6.35;;;17.40;77.90;;;;;;5051233;28;20044;-61
2022/04/20 12:02:20;;;;;;;14.95;6.88;;;17.60;78.60;;;;;;5056271;28;20048;-61
2022/04/20 12:05:05;;;;;;;10.77;6.40;;;17.80;78.20;;;;;;5068224;28;20056;-61
2022/04/20 12:07:34;;;;;;;12.10;6.20;;;18.10;79.10;;;;;;5065223;28;20059;-60
2022/04/20 12:10:03;;;;;;;12.43;6.70;;;18.40;74.80;;;;;;5057778;28;20043;-60
2022/04/20 12:12:32;;;;;;;11.60;6.38;;;18.60;73.20;;;;;;5049580;28;20044;-61
2022/04/20 12:15:10;;;;;;;10.65;5.90;;;18.80;73.00;;;;;;5049916;28;20378;-61
2022/04/20 12:17:38;;;;;;;11.77;6.60;;;19.10;73.40;;;;;;5049540;28;20045;-61
2022/04/20 12:20:07;;;;;;;9.95;5.43;;;19.30;72.40;;;;;;5063877;28;20051;-63
2022/04/20 12:22:39;;;;;;;19.58;6.07;;;19.50;68.30;;;;;;5068577;28;20389;-63
2022/04/20 12:25:11;;;;;;;9.60;5.45;;;19.70;69.00;;;;;;5064186;28;20036;-63
2022/04/20 12:27:51;;;;;;;7.93;5.40;;;19.70;68.50;;;;;;5050241;28;20054;-63
2022/04/20 12:30:45;;;;;;;10.30;5.78;;;19.80;68.40;;;;;;5051491;28;20052;-64
2022/04/20 12:33:25;;;;;;;10.52;6.30;;;19.80;67.10;;;;;;5056274;28;20507;-63
2022/04/20 12:36:08;;;;;;;11.07;5.88;;;19.80;67.80;;;;;;5065070;28;20040;-63
2022/04/20 12:39:02;;;;;;;14.13;6.68;;;19.90;68.70;;;;;;5057012;28;20049;-61
2022/04/20 12:41:46;;;;;;;15.63;6.97;;;20.00;66.80;;;;;;5053172;28;20079;-61
2022/04/20 12:44:35;;;;;;;11.35;6.25;;;20.10;66.70;;;;;;5068336;28;20040;-60
2022/04/20 12:47:06;;;;;;;10.90;5.85;;;20.10;66.80;;;;;;5050410;28;20049;-61
2022/04/20 12:49:34;;;;;;;10.63;6.20;;;20.20;67.50;;;;;;5061922;28;20045;-61
2022/04/20 12:52:09;;;;;;;9.18;5.57;;;20.30;65.40;;;;;;5055858;28;20033;-61
2022/04/20 12:54:37;;;;;;;9.63;5.28;;;20.20;65.30;;;;;;5052651;28;20055;-61
2022/04/20 13:03:20;;;;;;;10.85;5.30;;;19.60;66.20;;;;;;5049797;28;20041;-62
2022/04/20 13:05:48;;;;;;;;;;;19.60;66.90;;;;;;5063089;28;20064;-62
2022/04/20 13:08:16;;;;;;;12.95;6.05;;;19.60;66.50;;;;;;5063685;28;20667;-62
2022/04/20 13:10:45;;;;;;;10.52;6.40;;;19.70;65.40;;;;;;5055704;28;20044;-61
2022/04/20 13:13:13;;;;;;;9.95;4.65;;;19.70;66.10;;;;;;5051715;28;20049;-61
2022/04/20 13:15:45;;;;;;;12.38;5.68;;;19.80;65.80;;;;;;5050204;28;20039;-61
2022/04/20 13:18:13;;;;;;;11.88;5.93;;;19.60;65.70;;;;;;5057121;28;20044;-61
2022/04/20 13:20:41;;;;;;;10.27;6.38;;;19.30;66.30;;;;;;5048046;28;20504;-60
2022/04/20 13:23:09;;;;;;;12.98;5.95;;;19.00;66.90;;;;;;5051775;28;20052;-63
2022/04/20 13:28:23;;;;;;;13.80;5.75;;;18.60;69.30;;;;;;5052307;28;20051;-62
2022/04/20 13:30:51;;;;;;;15.70;5.97;;;18.60;68.90;;;;;;5055576;28;20054;-66
2022/04/20 13:33:19;;;;;;;10.20;5.13;;;18.60;68.20;;;;;;5054847;28;20037;-63
2022/04/20 13:35:49;;;;;;;9.48;4.05;;;18.60;67.60;;;;;;5056323;28;20053;-62
2022/04/20 13:38:17;;;;;;;9.40;4.60;;;18.50;66.70;;;;;;5057949;28;20047;-63
2022/04/20 13:40:45;;;;;;;11.60;4.60;;;18.50;66.20;;;;;;5056652;28;20049;-62
2022/04/20 13:43:13;;;;;;;9.38;4.45;;;18.40;66.50;;;;;;5058148;28;20404;-61
2022/04/20 13:45:40;;;;;;;10.25;4.20;;;18.40;66.90;;;;;;5051584;28;20064;-62
2022/04/20 13:48:08;;;;;;;8.13;4.10;;;18.40;66.40;;;;;;5053805;28;20045;-62
2022/04/20 13:50:36;;;;;;;10.50;4.50;;;18.50;66.20;;;;;;5052664;28;20056;-64
2022/04/20 13:53:06;;;;;;;10.60;3.90;;;18.60;66.00;;;;;;5054429;28;20040;-64
2022/04/20 13:55:35;;;;;;;8.40;4.05;;;18.80;65.60;;;;;;5050481;28;20071;-66
2022/04/20 13:58:03;;;;;;;8.75;4.28;;;19.10;64.70;;;;;;5060870;28;20044;-63
2022/04/20 14:00:31;;;;;;;13.68;3.60;;;19.40;64.70;;;;;;5054477;28;20056;-64
2022/04/20 14:02:59;;;;;;;9.93;4.10;;;19.80;63.60;;;;;;5050470;28;20041;-64
2022/04/20 14:05:27;;;;;;;9.10;4.22;;;20.30;62.60;;;;;;5050399;28;20080;-64